Bernal, New Mexico
Current Conditions -  °F | °C
As of 8:53 PM on Saturday 25 Oct 2014 (Local Time) from KLVS Reporting Station
Clear Clear  
Wind Chill: 56°   Ceiling: Unl
Heat Index: 56°   Visibility: 10mi
Dew Point: 25°   Wind: 7mph
Humidity: 30%   Direction: 250°WSW
Pressure: 30.23"   Gusts: NA
Location:  35.3928°N, 105.316°W
Report Text: KLVS 260253Z AUTO 25006KT 10SM CLR 13/M04 A3023 RMK AO2 SLP158 T01331039 50007
Loading
Personal Weather Stations






























Interactive Weather Map
Tropical Storm Tracking
New forecast layout! Learn more

10-Day Weather Forecast

Advertisements
Track Severe Weather on mobile